Time;durP1;ratioP1;P1;durP2;ratioP2;P2;SDS_P1;SDS_P2;PMS_P1;PMS_P2;Temp;Humidity;BMP_temperature;BMP_pressure;BME280_temperature;BME280_humidity;BME280_pressure;Samples;Min_cycle;Max_cycle;Signal;HPM_P1;HPM_P2
2022/07/06 00:02:00;;;;;;;0.57;0.50;;;23.30;48.80;;;;;;6170913;28;20039;-67
2022/07/06 00:05:01;;;;;;;0.43;0.40;;;23.40;48.50;;;;;;6171084;28;20030;-67
2022/07/06 00:08:01;;;;;;;0.40;0.40;;;23.50;48.20;;;;;;6172673;28;20033;-67
2022/07/06 00:11:02;;;;;;;0.85;0.45;;;23.50;48.00;;;;;;6171787;28;20023;-67
2022/07/06 00:14:04;;;;;;;0.30;0.30;;;23.60;47.80;;;;;;6170628;28;20547;-67
2022/07/06 00:17:05;;;;;;;0.65;0.45;;;23.60;47.60;;;;;;6171056;28;20033;-67
2022/07/06 00:20:06;;;;;;;0.38;0.30;;;23.70;47.50;;;;;;6170923;28;20462;-66
2022/07/06 00:23:06;;;;;;;0.43;0.40;;;23.70;47.30;;;;;;6169990;28;20038;-67
2022/07/06 00:26:07;;;;;;;0.70;0.40;;;23.70;47.30;;;;;;6170149;28;20106;-67
2022/07/06 00:29:08;;;;;;;0.45;0.40;;;23.70;47.20;;;;;;6170596;28;20023;-67
2022/07/06 00:32:08;;;;;;;0.57;0.50;;;23.80;47.10;;;;;;6170559;28;20038;-67
2022/07/06 00:35:09;;;;;;;0.57;0.30;;;23.80;47.10;;;;;;6170710;28;20066;-67
2022/07/06 00:38:10;;;;;;;0.40;0.30;;;23.80;47.00;;;;;;6170316;28;20064;-68
2022/07/06 00:41:15;;;;;;;0.30;0.30;;;23.80;46.90;;;;;;6170005;28;20458;-67
2022/07/06 00:44:15;;;;;;;0.88;0.50;;;23.80;46.80;;;;;;6170268;28;20462;-67
2022/07/06 00:47:16;;;;;;;0.28;0.28;;;23.80;46.70;;;;;;6171168;28;20050;-67
2022/07/06 00:50:20;;;;;;;2.17;0.50;;;23.80;46.70;;;;;;6171819;28;20031;-67
2022/07/06 00:53:21;;;;;;;0.77;0.30;;;23.80;46.70;;;;;;6171484;28;20085;-67
2022/07/06 00:56:22;;;;;;;0.90;0.40;;;23.80;46.60;;;;;;6171622;28;20023;-67
2022/07/06 00:59:24;;;;;;;0.30;0.30;;;23.80;46.50;;;;;;6171414;28;20042;-67
2022/07/06 01:02:24;;;;;;;0.40;0.30;;;23.80;46.60;;;;;;6170180;28;20126;-67
2022/07/06 01:05:26;;;;;;;0.30;0.30;;;23.80;46.40;;;;;;6171445;28;20031;-67
2022/07/06 01:08:28;;;;;;;0.30;0.30;;;23.80;46.30;;;;;;6170901;28;20126;-67
2022/07/06 01:11:29;;;;;;;1.10;0.30;;;23.90;46.40;;;;;;6169981;28;20027;-67
2022/07/06 01:14:30;;;;;;;0.40;0.30;;;23.80;46.30;;;;;;6170185;28;20026;-67
2022/07/06 01:17:32;;;;;;;0.30;0.30;;;23.90;46.30;;;;;;6170177;28;20117;-67
2022/07/06 01:20:33;;;;;;;0.28;0.28;;;23.80;46.80;;;;;;6169890;28;20027;-67
2022/07/06 01:23:42;;;;;;;0.55;0.30;;;23.60;47.30;;;;;;6169734;28;20049;-67
2022/07/06 01:26:43;;;;;;;0.32;0.30;;;23.50;47.90;;;;;;6169483;28;20030;-67
2022/07/06 01:29:44;;;;;;;0.43;0.40;;;23.40;48.60;;;;;;6169839;28;20031;-67
2022/07/06 01:32:45;;;;;;;0.50;0.38;;;23.30;49.90;;;;;;6169385;28;20085;-67
2022/07/06 01:35:46;;;;;;;0.40;0.30;;;23.30;49.60;;;;;;6169758;28;20031;-68
2022/07/06 01:38:53;;;;;;;0.28;0.28;;;23.20;49.80;;;;;;6170564;28;20485;-68
2022/07/06 01:41:54;;;;;;;1.20;0.40;;;23.20;50.10;;;;;;6170811;28;20035;-68
2022/07/06 01:44:55;;;;;;;0.30;0.30;;;23.20;50.20;;;;;;6171005;28;20413;-68
2022/07/06 01:47:56;;;;;;;0.40;0.40;;;23.20;50.20;;;;;;6169722;28;20059;-67
2022/07/06 01:50:56;;;;;;;0.50;0.35;;;23.20;50.20;;;;;;6170632;28;20030;-67
2022/07/06 01:53:57;;;;;;;0.43;0.43;;;23.20;50.20;;;;;;6170175;28;20371;-68
2022/07/06 01:56:58;;;;;;;0.75;0.35;;;23.10;50.10;;;;;;6169487;28;20114;-67
2022/07/06 01:59:58;;;;;;;0.52;0.30;;;23.10;50.00;;;;;;6169367;28;20441;-67
2022/07/06 02:02:59;;;;;;;0.52;0.38;;;23.10;49.90;;;;;;6168895;28;20093;-67
2022/07/06 02:06:00;;;;;;;0.60;0.40;;;23.20;50.10;;;;;;6169127;28;20081;-67
2022/07/06 02:09:01;;;;;;;1.00;0.40;;;23.10;50.00;;;;;;6169770;28;20023;-67
2022/07/06 02:12:01;;;;;;;0.50;0.30;;;23.10;50.10;;;;;;6169101;28;20483;-67
2022/07/06 02:15:02;;;;;;;0.43;0.40;;;23.10;50.20;;;;;;6171070;28;20097;-68
2022/07/06 02:18:03;;;;;;;0.38;0.38;;;23.10;50.20;;;;;;6173891;28;20077;-67
2022/07/06 02:21:05;;;;;;;0.75;0.30;;;23.10;50.20;;;;;;6173999;28;20054;-67
2022/07/06 02:24:05;;;;;;;0.60;0.47;;;23.10;50.30;;;;;;6169119;28;20035;-67
2022/07/06 02:27:06;;;;;;;1.85;0.35;;;23.10;50.30;;;;;;6164587;28;20022;-67
2022/07/06 02:30:07;;;;;;;0.30;0.30;;;23.10;50.30;;;;;;6174531;28;20023;-68
2022/07/06 02:33:08;;;;;;;0.43;0.30;;;23.10;50.30;;;;;;6172798;28;20062;-67
2022/07/06 02:36:08;;;;;;;0.30;0.30;;;23.10;50.40;;;;;;6173732;28;20031;-67
2022/07/06 02:39:09;;;;;;;0.40;0.30;;;23.10;50.40;;;;;;6174609;28;20450;-67
2022/07/06 02:42:10;;;;;;;0.70;0.40;;;23.10;50.50;;;;;;6173090;28;20096;-66
2022/07/06 02:45:12;;;;;;;0.65;0.40;;;23.10;50.50;;;;;;6172752;28;20026;-66
2022/07/06 02:48:12;;;;;;;0.60;0.40;;;23.10;50.60;;;;;;6172992;28;20094;-66
2022/07/06 02:51:13;;;;;;;0.20;0.20;;;23.10;50.70;;;;;;6173090;28;20030;-67
2022/07/06 02:54:14;;;;;;;0.30;0.30;;;23.10;50.70;;;;;;6172707;28;20080;-67
2022/07/06 02:57:18;;;;;;;0.40;0.40;;;23.10;50.70;;;;;;6172951;28;20470;-67
2022/07/06 03:00:18;;;;;;;0.38;0.30;;;23.10;50.80;;;;;;6172476;28;20051;-67
2022/07/06 03:03:19;;;;;;;0.85;0.40;;;23.10;50.90;;;;;;6173037;28;20038;-67
2022/07/06 03:06:19;;;;;;;0.30;0.25;;;23.10;51.00;;;;;;6172270;28;20506;-67
2022/07/06 03:09:20;;;;;;;0.50;0.45;;;23.10;51.00;;;;;;6173017;28;20154;-68
2022/07/06 03:12:21;;;;;;;0.30;0.30;;;23.10;51.10;;;;;;6172691;28;20478;-67
2022/07/06 03:15:21;;;;;;;0.30;0.30;;;23.00;51.00;;;;;;6174065;28;20046;-67
2022/07/06 03:18:22;;;;;;;0.32;0.32;;;23.00;51.10;;;;;;6173685;28;20030;-67
2022/07/06 03:21:24;;;;;;;0.55;0.38;;;23.00;51.20;;;;;;6173649;28;20055;-67
2022/07/06 03:24:24;;;;;;;0.30;0.30;;;23.00;51.10;;;;;;6166192;28;20039;-67
2022/07/06 03:27:25;;;;;;;0.77;0.40;;;23.00;51.20;;;;;;6164639;28;20038;-67
2022/07/06 03:30:26;;;;;;;0.70;0.30;;;23.00;51.30;;;;;;6171526;28;20042;-68
2022/07/06 03:33:26;;;;;;;0.95;0.30;;;23.00;51.30;;;;;;6172299;28;20552;-67
2022/07/06 03:36:27;;;;;;;0.30;0.30;;;23.00;51.30;;;;;;6172831;28;20082;-67
2022/07/06 03:39:27;;;;;;;0.82;0.40;;;23.00;51.30;;;;;;6173670;28;20109;-67
2022/07/06 03:42:28;;;;;;;1.00;0.35;;;23.00;51.40;;;;;;6172827;28;20042;-67
2022/07/06 03:45:29;;;;;;;1.27;0.30;;;23.00;51.40;;;;;;6173282;28;20050;-67
2022/07/06 03:48:29;;;;;;;0.35;0.35;;;23.00;51.40;;;;;;6172881;28;20051;-67
2022/07/06 03:51:30;;;;;;;0.30;0.30;;;23.00;51.40;;;;;;6172201;28;20097;-67
2022/07/06 03:54:31;;;;;;;0.43;0.25;;;23.00;51.40;;;;;;6171690;28;20378;-67
2022/07/06 03:57:31;;;;;;;0.30;0.30;;;23.00;51.40;;;;;;6171548;28;20500;-66
2022/07/06 04:00:34;;;;;;;0.73;0.47;;;23.00;51.50;;;;;;6171011;28;20390;-67
2022/07/06 04:03:34;;;;;;;0.30;0.30;;;23.00;51.50;;;;;;6171164;28;20050;-67
2022/07/06 04:06:35;;;;;;;1.20;0.55;;;23.00;51.50;;;;;;6170832;28;20453;-67
2022/07/06 04:09:35;;;;;;;0.40;0.40;;;23.00;51.50;;;;;;6171445;28;20054;-67
2022/07/06 04:12:43;;;;;;;0.30;0.30;;;23.00;51.50;;;;;;6170846;28;20030;-67
2022/07/06 04:15:44;;;;;;;0.20;0.20;;;23.00;51.50;;;;;;6170861;28;20081;-67
2022/07/06 04:18:44;;;;;;;0.20;0.20;;;23.00;51.60;;;;;;6171365;28;20070;-67
2022/07/06 04:21:45;;;;;;;0.20;0.20;;;23.00;51.60;;;;;;6172474;28;20062;-67
2022/07/06 04:24:46;;;;;;;0.52;0.30;;;23.00;51.60;;;;;;6172287;28;20022;-68
2022/07/06 04:27:46;;;;;;;0.47;0.40;;;23.00;51.60;;;;;;6170533;28;20236;-67
2022/07/06 04:30:47;;;;;;;0.30;0.20;;;23.00;51.70;;;;;;6171017;28;20118;-67
2022/07/06 04:33:48;;;;;;;0.45;0.40;;;23.00;51.60;;;;;;6170483;28;20390;-67
2022/07/06 04:36:48;;;;;;;0.47;0.40;;;23.00;51.70;;;;;;6169358;28;20031;-68
2022/07/06 04:39:49;;;;;;;0.57;0.40;;;23.00;51.70;;;;;;6170653;28;20066;-67
2022/07/06 04:42:49;;;;;;;0.35;0.30;;;23.00;51.70;;;;;;6170957;28;20092;-68
2022/07/06 04:45:50;;;;;;;0.75;0.40;;;23.00;51.70;;;;;;6171822;28;20040;-67
2022/07/06 04:48:51;;;;;;;0.22;0.20;;;23.00;51.70;;;;;;6171576;28;20093;-68
2022/07/06 04:51:51;;;;;;;0.70;0.20;;;23.00;51.70;;;;;;6171237;28;20073;-68
2022/07/06 04:54:52;;;;;;;0.30;0.30;;;23.00;52.40;;;;;;6171711;28;20019;-67
2022/07/06 04:57:53;;;;;;;0.30;0.30;;;23.00;51.80;;;;;;6171608;28;20026;-67
2022/07/06 05:00:53;;;;;;;0.32;0.30;;;23.00;51.80;;;;;;6169156;28;20062;-67
2022/07/06 05:03:54;;;;;;;0.40;0.40;;;23.00;51.80;;;;;;6146519;29;20409;-67
2022/07/06 05:06:55;;;;;;;1.10;0.30;;;23.00;52.40;;;;;;6162456;28;20434;-67
2022/07/06 05:09:55;;;;;;;0.47;0.30;;;23.00;51.80;;;;;;6171617;28;20038;-67
2022/07/06 05:12:56;;;;;;;0.30;0.25;;;23.00;51.80;;;;;;6171130;28;20023;-67
2022/07/06 05:15:57;;;;;;;0.68;0.57;;;23.00;51.80;;;;;;6171210;28;20026;-67
2022/07/06 05:18:57;;;;;;;0.73;0.40;;;23.00;51.80;;;;;;6171403;28;20146;-67
2022/07/06 05:21:58;;;;;;;0.52;0.40;;;23.00;51.80;;;;;;6171633;28;20034;-67
2022/07/06 05:24:59;;;;;;;0.80;0.47;;;23.00;51.80;;;;;;6159849;28;20074;-67
2022/07/06 05:28:00;;;;;;;0.80;0.35;;;23.00;51.80;;;;;;6168218;28;20030;-67
2022/07/06 05:31:00;;;;;;;0.50;0.30;;;23.00;51.90;;;;;;6171125;28;20034;-67
2022/07/06 05:34:02;;;;;;;0.60;0.45;;;23.00;51.90;;;;;;6170941;28;20019;-67
2022/07/06 05:37:02;;;;;;;0.60;0.30;;;23.00;50.50;;;;;;6170655;28;20057;-67
2022/07/06 05:40:04;;;;;;;0.63;0.30;;;23.00;50.00;;;;;;6171574;28;20027;-67
2022/07/06 05:43:04;;;;;;;0.73;0.35;;;23.20;49.40;;;;;;6171429;28;20034;-67
2022/07/06 05:46:05;;;;;;;0.52;0.38;;;23.30;49.10;;;;;;6170616;28;20034;-67
2022/07/06 05:52:25;;;;;;;0.70;0.40;;;23.50;48.50;;;;;;6175315;28;20039;-67
2022/07/06 05:55:27;;;;;;;0.70;0.50;;;23.50;48.10;;;;;;6175874;28;20030;-68
2022/07/06 05:58:28;;;;;;;0.60;0.30;;;23.60;47.90;;;;;;6175697;28;20041;-68
2022/07/06 06:01:28;;;;;;;0.80;0.45;;;23.70;47.80;;;;;;6175837;28;20046;-69
2022/07/06 06:04:29;;;;;;;2.63;0.63;;;23.70;47.70;;;;;;6178019;28;20058;-69
2022/07/06 06:07:29;;;;;;;0.68;0.50;;;23.70;47.60;;;;;;6177264;28;20081;-68
2022/07/06 06:10:30;;;;;;;0.68;0.43;;;23.70;47.50;;;;;;6177893;28;20023;-68
2022/07/06 06:13:31;;;;;;;0.45;0.40;;;23.70;47.30;;;;;;6177353;28;20081;-68
2022/07/06 06:16:31;;;;;;;0.50;0.40;;;23.80;47.30;;;;;;6177390;28;20105;-68
2022/07/06 06:19:33;;;;;;;0.40;0.40;;;23.80;47.60;;;;;;6177185;28;20019;-68
2022/07/06 06:22:52;;;;;;;0.93;0.50;;;23.50;48.30;;;;;;6177277;28;20066;-69
2022/07/06 06:25:52;;;;;;;0.82;0.40;;;23.40;48.70;;;;;;6173636;28;20026;-68
2022/07/06 06:28:53;;;;;;;0.45;0.40;;;23.30;49.60;;;;;;6177102;28;20049;-68
2022/07/06 06:31:53;;;;;;;0.73;0.60;;;23.20;50.30;;;;;;6176093;28;20089;-69
2022/07/06 06:34:54;;;;;;;0.40;0.40;;;23.20;50.60;;;;;;6177338;28;20709;-69
2022/07/06 06:37:55;;;;;;;0.98;0.55;;;23.20;51.00;;;;;;6176528;28;20643;-69
2022/07/06 06:40:55;;;;;;;1.17;0.50;;;23.10;51.00;;;;;;6176959;28;20055;-69
2022/07/06 06:43:56;;;;;;;0.68;0.40;;;23.10;51.20;;;;;;6176653;28;20034;-69
2022/07/06 06:46:57;;;;;;;0.75;0.40;;;23.10;51.30;;;;;;6176455;28;20521;-69
2022/07/06 06:49:57;;;;;;;0.77;0.40;;;23.10;51.30;;;;;;6176880;28;20038;-69
2022/07/06 06:52:58;;;;;;;0.30;0.30;;;23.10;51.40;;;;;;6176532;28;20474;-69
2022/07/06 06:55:59;;;;;;;1.10;0.60;;;23.10;51.50;;;;;;6176567;28;20023;-69
2022/07/06 06:59:01;;;;;;;0.40;0.40;;;23.10;51.60;;;;;;6176798;28;20073;-69
2022/07/06 07:02:02;;;;;;;0.30;0.30;;;23.10;51.50;;;;;;6175507;28;20086;-69
2022/07/06 07:05:03;;;;;;;1.60;0.70;;;23.10;51.20;;;;;;6176450;28;20039;-69
2022/07/06 07:08:04;;;;;;;0.40;0.40;;;23.00;51.00;;;;;;6176199;28;20080;-69
2022/07/06 07:11:05;;;;;;;0.60;0.40;;;23.00;51.00;;;;;;6176575;28;20026;-69
2022/07/06 07:14:06;;;;;;;0.50;0.50;;;23.00;51.00;;;;;;6175567;28;20038;-69
2022/07/06 07:17:06;;;;;;;0.30;0.30;;;23.00;51.00;;;;;;6175835;28;20047;-68
2022/07/06 07:20:08;;;;;;;0.40;0.30;;;23.10;51.20;;;;;;6176019;28;20022;-69
2022/07/06 07:23:08;;;;;;;0.93;0.50;;;23.00;51.10;;;;;;6175908;28;20053;-69
2022/07/06 07:26:09;;;;;;;0.73;0.40;;;23.00;51.10;;;;;;6161742;28;20497;-68
2022/07/06 07:29:09;;;;;;;0.50;0.30;;;23.00;51.20;;;;;;6175797;28;20042;-68
2022/07/06 07:32:10;;;;;;;0.40;0.40;;;23.00;51.20;;;;;;6175342;28;20069;-69
2022/07/06 07:35:11;;;;;;;0.35;0.30;;;23.00;51.30;;;;;;6175310;28;20030;-69
2022/07/06 07:38:11;;;;;;;0.40;0.40;;;23.00;51.40;;;;;;6175477;28;20022;-68
2022/07/06 07:41:13;;;;;;;0.98;0.40;;;23.00;51.40;;;;;;6175116;28;20025;-68
2022/07/06 07:44:14;;;;;;;0.32;0.32;;;23.00;51.40;;;;;;6175291;28;20109;-69
2022/07/06 07:47:15;;;;;;;0.47;0.40;;;23.00;51.50;;;;;;6174920;28;20054;-68
2022/07/06 07:50:15;;;;;;;0.57;0.50;;;23.00;51.60;;;;;;6175779;28;20031;-68
2022/07/06 07:53:16;;;;;;;0.55;0.30;;;23.00;51.70;;;;;;6175098;28;20019;-69
2022/07/06 07:56:16;;;;;;;0.47;0.40;;;23.00;51.70;;;;;;6175336;28;20541;-68
2022/07/06 07:59:17;;;;;;;0.32;0.30;;;23.00;51.70;;;;;;6174925;28;20097;-69
2022/07/06 08:02:18;;;;;;;0.45;0.40;;;23.00;51.70;;;;;;6174743;28;20082;-69
2022/07/06 08:05:18;;;;;;;0.52;0.47;;;23.00;51.80;;;;;;6175237;28;20034;-69
2022/07/06 08:08:19;;;;;;;0.80;0.60;;;23.00;51.80;;;;;;6174735;28;20025;-68
2022/07/06 08:11:19;;;;;;;0.70;0.40;;;23.00;51.90;;;;;;6174382;28;20018;-69
2022/07/06 08:14:20;;;;;;;0.32;0.30;;;23.00;51.90;;;;;;6174415;28;20031;-68
2022/07/06 08:17:21;;;;;;;0.80;0.32;;;23.00;51.90;;;;;;6174391;28;20026;-69
2022/07/06 08:20:21;;;;;;;0.30;0.30;;;23.00;51.90;;;;;;6174285;28;20099;-67
2022/07/06 08:23:23;;;;;;;0.38;0.35;;;23.00;51.90;;;;;;6174058;28;20609;-67
2022/07/06 08:26:24;;;;;;;0.50;0.40;;;23.00;51.90;;;;;;6174399;28;20066;-69
2022/07/06 08:29:25;;;;;;;0.50;0.30;;;23.00;51.90;;;;;;6174380;28;20434;-68
2022/07/06 08:32:25;;;;;;;0.25;0.25;;;23.00;51.90;;;;;;6174492;28;20027;-69
2022/07/06 08:35:26;;;;;;;0.43;0.30;;;23.00;51.90;;;;;;6173845;28;20093;-68
2022/07/06 08:38:27;;;;;;;0.28;0.28;;;23.00;51.90;;;;;;6174147;28;20062;-69
2022/07/06 08:41:29;;;;;;;0.40;0.40;;;23.00;52.00;;;;;;6173902;28;20501;-69
2022/07/06 08:44:30;;;;;;;1.15;0.50;;;23.00;52.00;;;;;;6174083;28;20029;-69
2022/07/06 08:47:31;;;;;;;0.40;0.40;;;23.00;52.00;;;;;;6173707;28;20051;-68
2022/07/06 08:50:33;;;;;;;0.63;0.40;;;23.00;52.00;;;;;;6173470;28;20030;-68
2022/07/06 08:53:34;;;;;;;1.30;0.40;;;23.00;52.10;;;;;;6173596;28;20023;-68
2022/07/06 08:56:35;;;;;;;0.20;0.20;;;23.00;52.00;;;;;;6173856;28;20026;-69
2022/07/06 08:59:36;;;;;;;0.60;0.30;;;23.00;52.10;;;;;;6173761;28;20015;-69
2022/07/06 09:02:37;;;;;;;0.70;0.32;;;23.00;52.00;;;;;;6173739;28;20043;-69
2022/07/06 09:05:40;;;;;;;0.40;0.40;;;23.00;52.10;;;;;;6173775;28;20068;-68
2022/07/06 09:08:41;;;;;;;0.57;0.47;;;23.00;52.10;;;;;;6173722;28;20081;-69
2022/07/06 09:11:41;;;;;;;0.30;0.30;;;23.00;52.10;;;;;;6173760;28;20058;-69
2022/07/06 09:14:42;;;;;;;0.22;0.22;;;23.00;52.10;;;;;;6173273;28;20018;-68
2022/07/06 09:17:43;;;;;;;0.70;0.47;;;23.00;52.10;;;;;;6173005;28;20434;-69
2022/07/06 09:20:44;;;;;;;0.57;0.40;;;23.00;52.20;;;;;;6173661;28;20107;-68
2022/07/06 09:23:45;;;;;;;0.55;0.38;;;23.00;52.20;;;;;;6172947;28;20030;-69
2022/07/06 09:26:47;;;;;;;0.32;0.30;;;23.00;52.20;;;;;;6168182;28;20046;-69
2022/07/06 09:29:48;;;;;;;0.30;0.30;;;23.00;52.20;;;;;;6173039;28;20106;-69
2022/07/06 09:32:51;;;;;;;0.63;0.35;;;23.00;52.20;;;;;;6172343;28;20044;-68
2022/07/06 09:35:54;;;;;;;0.57;0.45;;;23.00;52.20;;;;;;6172428;28;20018;-68
2022/07/06 09:38:54;;;;;;;0.38;0.38;;;23.00;52.20;;;;;;6172412;28;20038;-68
2022/07/06 09:41:56;;;;;;;1.05;0.40;;;23.00;52.20;;;;;;6172089;28;20449;-69
2022/07/06 09:44:57;;;;;;;0.30;0.30;;;23.00;52.30;;;;;;6172600;28;20019;-69
2022/07/06 09:48:12;;;;;;;0.40;0.40;;;23.00;52.20;;;;;;6173286;28;20568;-69
2022/07/06 09:51:15;;;;;;;0.40;0.40;;;23.00;52.30;;;;;;6172366;28;20107;-69
2022/07/06 09:54:16;;;;;;;0.60;0.50;;;23.00;52.30;;;;;;6172657;28;20046;-68
2022/07/06 09:57:17;;;;;;;0.68;0.50;;;23.00;52.20;;;;;;6172892;28;20406;-69
2022/07/06 10:00:19;;;;;;;0.52;0.30;;;23.00;52.30;;;;;;6172816;28;20030;-68
2022/07/06 10:03:19;;;;;;;0.50;0.40;;;23.00;52.30;;;;;;6172730;28;20560;-69
2022/07/06 10:06:20;;;;;;;0.32;0.32;;;23.00;52.30;;;;;;6172668;28;20019;-69
2022/07/06 10:09:24;;;;;;;0.52;0.40;;;23.00;52.30;;;;;;6172337;28;20094;-69
2022/07/06 10:12:25;;;;;;;0.50;0.30;;;23.00;52.30;;;;;;6172899;28;20023;-68
2022/07/06 10:15:27;;;;;;;0.68;0.50;;;22.90;52.20;;;;;;6172878;28;20059;-69
2022/07/06 10:18:28;;;;;;;0.40;0.35;;;23.00;52.30;;;;;;6172317;28;20027;-69
2022/07/06 10:21:29;;;;;;;0.40;0.40;;;22.90;52.20;;;;;;6172259;28;20037;-69
2022/07/06 10:24:33;;;;;;;1.17;0.50;;;23.00;52.40;;;;;;6172767;28;20035;-69
2022/07/06 10:27:35;;;;;;;1.98;0.50;;;23.00;52.40;;;;;;6172430;28;20081;-68
2022/07/06 10:30:36;;;;;;;0.30;0.30;;;22.90;52.30;;;;;;6172078;28;20033;-68
2022/07/06 10:33:38;;;;;;;0.55;0.38;;;22.90;52.30;;;;;;6172331;28;20018;-68
2022/07/06 10:36:42;;;;;;;0.55;0.43;;;22.90;52.30;;;;;;6175191;28;20021;-69
2022/07/06 10:43:09;;;;;;;0.30;0.30;;;22.90;52.40;;;;;;6176565;28;20121;-69
2022/07/06 10:46:20;;;;;;;0.30;0.30;;;22.90;52.40;;;;;;6176196;28;20469;-68
2022/07/06 10:49:21;;;;;;;0.68;0.50;;;22.90;52.40;;;;;;6176529;28;20105;-69
2022/07/06 10:52:22;;;;;;;0.40;0.40;;;22.90;52.40;;;;;;6176156;28;20578;-69
2022/07/06 10:55:38;;;;;;;1.02;0.60;;;22.90;52.40;;;;;;6176420;28;20081;-69
2022/07/06 10:58:52;;;;;;;0.40;0.40;;;22.90;52.40;;;;;;6176540;28;20043;-68
2022/07/06 11:02:11;;;;;;;0.68;0.38;;;22.90;52.40;;;;;;6176091;28;20100;-69
2022/07/06 11:05:42;;;;;;;0.30;0.30;;;22.90;52.40;;;;;;6176267;28;20023;-68
2022/07/06 11:08:43;;;;;;;0.35;0.32;;;22.90;52.40;;;;;;6176512;28;20027;-68
2022/07/06 11:11:47;;;;;;;0.38;0.30;;;22.90;52.40;;;;;;6175748;28;20490;-69
2022/07/06 11:14:49;;;;;;;0.32;0.30;;;22.90;52.40;;;;;;6176155;28;20113;-68
2022/07/06 11:18:12;;;;;;;0.30;0.30;;;22.90;52.40;;;;;;6176163;28;20038;-69
2022/07/06 11:21:23;;;;;;;0.40;0.32;;;22.90;52.40;;;;;;6175801;28;20561;-68
2022/07/06 11:24:29;;;;;;;0.77;0.40;;;22.90;52.40;;;;;;6158268;28;20062;-68
2022/07/06 11:27:30;;;;;;;0.40;0.30;;;22.90;52.40;;;;;;6175946;28;20130;-68
2022/07/06 11:30:32;;;;;;;0.30;0.30;;;22.90;52.50;;;;;;6175192;28;20069;-66
2022/07/06 11:33:33;;;;;;;0.35;0.30;;;22.90;52.50;;;;;;6175600;28;20434;-69
2022/07/06 11:36:35;;;;;;;0.40;0.40;;;22.90;52.50;;;;;;6175682;28;20026;-68
2022/07/06 11:39:40;;;;;;;0.40;0.40;;;22.90;52.50;;;;;;6175526;28;20426;-68
2022/07/06 11:42:52;;;;;;;0.80;0.43;;;22.90;52.50;;;;;;6174777;28;20115;-69
2022/07/06 11:45:52;;;;;;;0.40;0.35;;;22.90;52.50;;;;;;6175434;28;20030;-69
2022/07/06 11:49:01;;;;;;;0.38;0.22;;;22.90;52.50;;;;;;6175315;28;20055;-69
2022/07/06 11:52:13;;;;;;;0.40;0.40;;;22.90;52.50;;;;;;6175128;28;20027;-68
2022/07/06 11:55:16;;;;;;;0.50;0.35;;;22.90;52.50;;;;;;6175031;28;20031;-68
2022/07/06 11:58:22;;;;;;;0.20;0.20;;;22.90;52.50;;;;;;6174939;28;20018;-68
2022/07/06 12:01:24;;;;;;;0.40;0.38;;;22.90;52.50;;;;;;6175373;28;20035;-68
2022/07/06 12:04:25;;;;;;;0.57;0.40;;;22.90;52.60;;;;;;6174914;28;20022;-68
2022/07/06 12:07:26;;;;;;;0.30;0.30;;;22.90;52.50;;;;;;6174759;28;20074;-69
2022/07/06 12:10:34;;;;;;;0.30;0.30;;;22.90;52.60;;;;;;6174976;28;20041;-69
2022/07/06 12:13:42;;;;;;;0.45;0.38;;;22.90;52.60;;;;;;6174622;28;20055;-69
2022/07/06 12:16:44;;;;;;;0.50;0.30;;;22.90;52.60;;;;;;6173306;28;20034;-68
2022/07/06 12:19:45;;;;;;;0.38;0.30;;;22.90;52.60;;;;;;6174534;28;20037;-68
2022/07/06 12:22:45;;;;;;;0.20;0.20;;;22.90;52.60;;;;;;6174626;28;20034;-69
2022/07/06 12:25:48;;;;;;;0.73;0.50;;;22.90;52.60;;;;;;6174148;28;20031;-68
2022/07/06 12:29:09;;;;;;;0.70;0.50;;;22.90;52.60;;;;;;6174638;28;20031;-69
2022/07/06 12:32:23;;;;;;;0.40;0.28;;;22.90;52.60;;;;;;6174093;28;20097;-69
2022/07/06 12:35:24;;;;;;;0.52;0.40;;;22.90;52.60;;;;;;6174031;28;20528;-69
2022/07/06 12:38:29;;;;;;;0.40;0.30;;;22.90;52.60;;;;;;6174556;28;20035;-69
2022/07/06 12:41:34;;;;;;;0.77;0.30;;;22.90;52.60;;;;;;6173962;28;20089;-69
2022/07/06 12:44:43;;;;;;;0.32;0.30;;;22.90;52.70;;;;;;6174536;28;20478;-68
2022/07/06 12:48:01;;;;;;;0.52;0.30;;;22.90;52.60;;;;;;6173299;28;20046;-69
2022/07/06 12:51:02;;;;;;;0.38;0.35;;;22.90;52.70;;;;;;6173652;28;20532;-68
2022/07/06 12:54:13;;;;;;;0.30;0.30;;;22.90;52.60;;;;;;6173786;28;20019;-69
2022/07/06 12:57:26;;;;;;;0.40;0.40;;;22.90;52.70;;;;;;6173483;28;20449;-68
2022/07/06 13:00:26;;;;;;;0.40;0.40;;;22.90;52.70;;;;;;6173302;28;20019;-69
2022/07/06 13:03:27;;;;;;;0.50;0.40;;;22.90;52.70;;;;;;6173743;28;20034;-69
2022/07/06 13:06:37;;;;;;;0.40;0.40;;;22.90;52.70;;;;;;6173708;28;20042;-69
2022/07/06 13:09:38;;;;;;;0.35;0.30;;;22.90;52.70;;;;;;6173747;28;20023;-69
2022/07/06 13:12:39;;;;;;;0.30;0.30;;;22.90;52.70;;;;;;6173159;28;20039;-68
2022/07/06 13:15:42;;;;;;;0.22;0.22;;;22.90;52.70;;;;;;6173348;28;20070;-69
2022/07/06 13:18:43;;;;;;;0.60;0.40;;;22.90;52.70;;;;;;6172963;28;20070;-69
2022/07/06 13:21:44;;;;;;;0.30;0.28;;;22.90;52.70;;;;;;6172347;28;20047;-69
2022/07/06 13:24:45;;;;;;;0.43;0.40;;;22.90;52.70;;;;;;6173358;28;20035;-69
2022/07/06 13:27:46;;;;;;;0.55;0.40;;;22.90;52.80;;;;;;6173175;28;20027;-68
2022/07/06 13:30:46;;;;;;;0.32;0.30;;;22.90;52.80;;;;;;6172880;28;20474;-69
2022/07/06 13:33:47;;;;;;;0.50;0.38;;;22.90;52.80;;;;;;6173349;28;20030;-69
2022/07/06 13:36:47;;;;;;;0.40;0.40;;;22.90;52.80;;;;;;6173021;28;20589;-68
2022/07/06 13:39:48;;;;;;;0.30;0.30;;;22.90;52.80;;;;;;6172965;28;20022;-69
2022/07/06 13:42:49;;;;;;;0.30;0.30;;;22.90;52.80;;;;;;6172803;28;20518;-69
2022/07/06 13:45:49;;;;;;;0.55;0.30;;;22.90;52.80;;;;;;6172738;28;20057;-68
2022/07/06 13:48:51;;;;;;;0.70;0.30;;;22.90;52.80;;;;;;6172657;28;20078;-69
2022/07/06 13:51:51;;;;;;;0.40;0.40;;;22.90;53.40;;;;;;6172847;28;20083;-69
2022/07/06 13:54:52;;;;;;;0.30;0.30;;;22.90;52.80;;;;;;6172860;28;20488;-69
2022/07/06 13:57:53;;;;;;;0.40;0.40;;;22.90;52.80;;;;;;6173192;28;20027;-69
2022/07/06 14:00:53;;;;;;;0.30;0.30;;;22.90;52.80;;;;;;6172552;28;20023;-69
2022/07/06 14:03:54;;;;;;;0.43;0.40;;;22.90;52.80;;;;;;6172957;28;20034;-68
2022/07/06 14:06:55;;;;;;;0.40;0.40;;;22.90;52.80;;;;;;6172450;28;20069;-68
2022/07/06 14:09:55;;;;;;;0.30;0.28;;;22.90;52.80;;;;;;6173561;28;20138;-68
2022/07/06 14:12:56;;;;;;;0.50;0.38;;;22.90;52.80;;;;;;6177007;28;20023;-68
2022/07/06 14:15:57;;;;;;;0.55;0.43;;;22.90;52.80;;;;;;6177636;28;20023;-68
2022/07/06 14:18:58;;;;;;;0.50;0.40;;;22.90;52.80;;;;;;6176921;28;20060;-69
2022/07/06 14:21:58;;;;;;;0.17;0.17;;;22.90;52.90;;;;;;6177444;28;20470;-68
2022/07/06 14:24:59;;;;;;;0.40;0.32;;;22.90;52.90;;;;;;6176996;28;20413;-69
2022/07/06 14:28:01;;;;;;;0.68;0.57;;;22.90;52.90;;;;;;6177017;28;20105;-68
2022/07/06 14:31:02;;;;;;;0.40;0.40;;;22.90;52.90;;;;;;6176962;28;20026;-68
2022/07/06 14:34:03;;;;;;;0.40;0.40;;;22.90;52.90;;;;;;6177211;28;20433;-69
2022/07/06 14:37:04;;;;;;;0.57;0.40;;;22.90;52.90;;;;;;6176936;28;20686;-69
2022/07/06 14:40:05;;;;;;;0.50;0.38;;;22.90;52.90;;;;;;6177058;28;20351;-68
2022/07/06 14:43:05;;;;;;;0.57;0.40;;;22.90;52.90;;;;;;6176450;28;20031;-69
2022/07/06 14:46:06;;;;;;;0.47;0.40;;;22.90;52.90;;;;;;6176574;28;20037;-69
2022/07/06 14:49:07;;;;;;;0.35;0.30;;;22.90;52.90;;;;;;6177939;28;20043;-69
2022/07/06 14:52:09;;;;;;;0.32;0.32;;;22.90;52.90;;;;;;6176375;28;20062;-68
2022/07/06 14:55:11;;;;;;;0.40;0.35;;;22.90;53.00;;;;;;6176535;28;20031;-68
2022/07/06 14:58:11;;;;;;;0.50;0.40;;;22.90;53.00;;;;;;6176676;28;20109;-68
2022/07/06 15:01:12;;;;;;;0.98;0.40;;;22.90;53.00;;;;;;6176175;28;20023;-69
2022/07/06 15:04:12;;;;;;;0.45;0.45;;;22.90;53.30;;;;;;6176394;28;20109;-69
2022/07/06 15:07:13;;;;;;;0.43;0.35;;;22.90;53.00;;;;;;6176146;28;20033;-68
2022/07/06 15:10:14;;;;;;;0.32;0.30;;;22.90;53.00;;;;;;6175836;28;20023;-69
2022/07/06 15:13:15;;;;;;;0.28;0.28;;;22.90;53.00;;;;;;6175748;28;20023;-69
2022/07/06 15:16:15;;;;;;;0.50;0.40;;;22.90;53.00;;;;;;6176100;28;20386;-69
2022/07/06 15:19:16;;;;;;;0.20;0.20;;;22.90;53.10;;;;;;6176079;28;20097;-68
2022/07/06 15:22:17;;;;;;;0.57;0.50;;;22.90;53.10;;;;;;6175380;28;20035;-69
2022/07/06 15:25:19;;;;;;;0.68;0.40;;;22.90;53.10;;;;;;6161930;28;20024;-68
2022/07/06 15:28:20;;;;;;;0.30;0.30;;;22.90;53.10;;;;;;6175374;28;20086;-69
2022/07/06 15:31:20;;;;;;;0.55;0.50;;;22.90;53.10;;;;;;6175823;28;20034;-69
2022/07/06 15:34:22;;;;;;;0.35;0.30;;;22.90;53.10;;;;;;6175288;28;20054;-68
2022/07/06 15:37:23;;;;;;;0.20;0.20;;;22.90;53.10;;;;;;6175709;28;20046;-69
2022/07/06 15:40:25;;;;;;;0.30;0.30;;;22.90;53.10;;;;;;6175523;28;20053;-68
2022/07/06 15:43:26;;;;;;;0.30;0.25;;;22.90;53.10;;;;;;6175220;28;20486;-68
2022/07/06 15:46:26;;;;;;;0.40;0.40;;;22.90;53.10;;;;;;6175069;28;20547;-69
2022/07/06 15:49:27;;;;;;;0.32;0.32;;;22.90;53.10;;;;;;6174832;28;20049;-69
2022/07/06 15:52:28;;;;;;;0.30;0.30;;;22.90;53.10;;;;;;6174970;28;20114;-69
2022/07/06 15:55:29;;;;;;;0.20;0.20;;;22.90;53.10;;;;;;6175284;28;20077;-69